Time;durP1;ratioP1;P1;durP2;ratioP2;P2;SDS_P1;SDS_P2;PMS_P1;PMS_P2;Temp;Humidity;BMP_temperature;BMP_pressure;BME280_temperature;BME280_humidity;BME280_pressure;Samples;Min_cycle;Max_cycle;Signal;HPM_P1;HPM_P2
2023/07/06 00:00:54;;;;;;;3.17;2.58;;;;;;;20.32;53.03;98788.13;5104342;27;102557;-71
2023/07/06 00:03:23;;;;;;;3.28;1.90;;;;;;;20.40;52.59;98783.59;5085961;27;103705;-72
2023/07/06 00:05:54;;;;;;;2.83;2.03;;;;;;;20.48;52.28;98777.38;5102150;27;103319;-71
2023/07/06 00:08:22;;;;;;;2.30;1.93;;;;;;;20.50;52.21;98778.03;5104017;27;103715;-71
2023/07/06 00:10:50;;;;;;;1.73;1.60;;;;;;;20.58;51.77;98786.06;5084730;27;102739;-72
2023/07/06 00:13:20;;;;;;;2.45;1.90;;;;;;;20.61;50.85;98785.72;5101910;27;102758;-71
2023/07/06 00:15:49;;;;;;;2.42;1.70;;;;;;;20.62;50.32;98776.66;5085379;27;103839;-72
2023/07/06 00:18:20;;;;;;;2.27;1.70;;;;;;;20.49;51.32;98776.38;5084273;27;104329;-71
2023/07/06 00:20:49;;;;;;;2.73;1.80;;;;;;;20.42;51.72;98775.38;5103367;27;102712;-71
2023/07/06 00:23:20;;;;;;;3.20;1.80;;;;;;;20.39;51.51;98776.53;5101589;27;103530;-72
2023/07/06 00:25:48;;;;;;;2.00;1.80;;;;;;;20.21;51.85;98784.75;5100857;27;103846;-72
2023/07/06 00:28:24;;;;;;;3.45;2.20;;;;;;;20.29;51.49;98785.78;5082328;27;104221;-71
2023/07/06 00:31:01;;;;;;;2.13;1.90;;;;;;;20.35;50.98;98795.84;5102406;27;103130;-72
2023/07/06 00:33:30;;;;;;;1.50;1.40;;;;;;;20.40;50.76;98785.44;5102305;27;102661;-72
2023/07/06 00:35:58;;;;;;;3.05;2.30;;;;;;;20.31;51.99;98783.78;5099031;27;104307;-71
2023/07/06 00:38:28;;;;;;;4.70;1.98;;;;;;;20.26;52.62;98786.13;5085369;27;104257;-71
2023/07/06 00:40:57;;;;;;;2.92;2.25;;;;;;;20.03;54.13;98785.94;5101890;27;102710;-71
2023/07/06 00:43:28;;;;;;;4.65;2.78;;;;;;;20.00;54.69;98784.44;5082276;27;103519;-71
2023/07/06 00:45:59;;;;;;;3.20;2.60;;;;;;;19.86;55.75;98787.78;5084351;27;104169;-72
2023/07/06 00:48:32;;;;;;;2.88;2.30;;;;;;;20.00;55.43;98780.91;5083146;27;104181;-71
2023/07/06 00:51:03;;;;;;;3.78;2.65;;;;;;;20.10;54.88;98787.78;5102836;27;102639;-71
2023/07/06 00:53:37;;;;;;;3.83;2.80;;;;;;;20.10;54.74;98797.66;5082048;27;103004;-72
2023/07/06 00:56:06;;;;;;;2.80;2.22;;;;;;;20.10;54.93;98793.16;5103382;27;103941;-71
2023/07/06 00:58:40;;;;;;;3.22;2.58;;;;;;;20.03;54.14;98792.16;5101607;27;103187;-72
2023/07/06 01:01:10;;;;;;;2.90;2.20;;;;;;;20.06;54.41;98789.13;5085541;27;104209;-71
2023/07/06 01:03:46;;;;;;;4.93;2.85;;;;;;;19.83;54.42;98787.28;5086491;27;103890;-71
2023/07/06 01:06:19;;;;;;;3.70;2.30;;;;;;;19.77;54.55;98786.09;5091028;27;103786;-71
2023/07/06 01:08:49;;;;;;;2.00;1.80;;;;;;;19.94;54.46;98782.44;5085847;27;104415;-71
2023/07/06 01:11:21;;;;;;;2.92;2.20;;;;;;;20.00;53.94;98784.44;5083498;27;103983;-71
2023/07/06 01:13:50;;;;;;;2.33;2.10;;;;;;;20.10;53.49;98777.06;5086116;27;102647;-71
2023/07/06 01:16:28;;;;;;;2.17;1.97;;;;;;;20.10;53.91;98787.78;5105147;27;103258;-71
2023/07/06 01:19:20;;;;;;;2.42;2.22;;;;;;;20.12;54.67;98779.59;5085583;27;104308;-71
2023/07/06 01:21:57;;;;;;;2.53;2.27;;;;;;;20.06;55.73;98785.63;5091100;27;103725;-71
2023/07/06 01:24:42;;;;;;;2.50;2.30;;;;;;;19.93;56.12;98780.75;5104995;27;103895;-71
2023/07/06 01:27:32;;;;;;;2.30;2.10;;;;;;;19.93;55.61;98780.75;5084033;27;104264;-72
2023/07/06 01:30:20;;;;;;;2.63;2.30;;;;;;;19.90;55.93;98775.72;5085216;27;103243;-72
2023/07/06 01:32:56;;;;;;;2.50;2.28;;;;;;;19.93;55.28;98771.88;5104096;27;102901;-72
2023/07/06 01:35:30;;;;;;;3.30;2.60;;;;;;;19.80;55.03;98764.34;5078187;27;103619;-73
2023/07/06 01:37:59;;;;;;;2.65;2.35;;;;;;;19.88;54.55;98769.69;5085505;27;104282;-73
2023/07/06 01:40:27;;;;;;;3.60;2.72;;;;;;;19.79;55.03;98764.50;5087108;27;103638;-72
2023/07/06 01:42:59;;;;;;;3.67;3.03;;;;;;;19.73;54.93;98760.66;5087527;27;102727;-72
2023/07/06 01:45:28;;;;;;;5.88;3.53;;;;;;;19.08;56.84;98759.69;5104811;27;102666;-72
2023/07/06 01:47:59;;;;;;;3.47;3.15;;;;;;;19.32;55.58;98765.09;5083818;27;104101;-72
2023/07/06 01:50:38;;;;;;;3.72;3.15;;;;;;;19.32;56.68;98770.44;5085709;27;103411;-72
2023/07/06 01:53:14;;;;;;;4.80;3.33;;;;;;;18.75;58.64;98769.41;5088067;27;102666;-72
2023/07/06 01:55:45;;;;;;;3.42;3.10;;;;;;;19.01;57.62;98774.69;5103950;27;103172;-71
2023/07/06 01:58:23;;;;;;;3.30;2.95;;;;;;;19.21;56.72;98769.91;5086634;27;103491;-72
2023/07/06 02:00:56;;;;;;;4.27;2.90;;;;;;;19.11;57.69;98768.19;5087218;27;103372;-71
2023/07/06 02:03:30;;;;;;;5.25;3.42;;;;;;;18.60;59.13;98770.19;5105555;27;102570;-72
2023/07/06 02:06:01;;;;;;;5.28;3.67;;;;;;;18.09;61.87;98771.84;5104492;27;103028;-72
2023/07/06 02:08:30;;;;;;;5.50;4.07;;;;;;;17.64;63.50;98780.00;5085937;27;104211;-72
2023/07/06 02:10:59;;;;;;;4.33;3.70;;;;;;;17.54;64.59;98773.06;5106373;27;103183;-71
2023/07/06 02:13:27;;;;;;;5.38;4.15;;;;;;;17.33;65.15;98765.28;5087877;27;102780;-71
2023/07/06 02:19:43;;;;;;;4.17;3.27;;;;;;;17.72;64.59;98768.53;5084203;27;102991;-73
2023/07/06 02:22:17;;;;;;;3.47;3.17;;;;;;;18.16;62.90;98764.03;5097653;27;103501;-71
2023/07/06 02:24:45;;;;;;;3.40;2.90;;;;;;;18.47;60.97;98768.72;5084580;27;104160;-71
2023/07/06 02:27:13;;;;;;;4.93;3.08;;;;;;;18.39;61.42;98781.22;5086341;27;102813;-71
2023/07/06 02:29:43;;;;;;;5.00;3.53;;;;;;;18.12;62.53;98786.72;5085842;27;104286;-70
2023/07/06 02:32:11;;;;;;;4.10;3.67;;;;;;;17.91;63.34;98784.38;5104937;27;103247;-70
2023/07/06 02:34:38;;;;;;;5.88;4.10;;;;;;;17.44;66.05;98789.09;5086824;27;102783;-70
2023/07/06 02:37:08;;;;;;;5.70;3.97;;;;;;;17.16;66.59;98787.47;5103553;27;103128;-71
2023/07/06 02:39:35;;;;;;;4.00;3.40;;;;;;;17.67;65.10;98784.19;5085525;27;103648;-73
2023/07/06 02:42:04;;;;;;;5.30;3.53;;;;;;;17.68;64.79;98781.38;5086411;27;104157;-71
2023/07/06 02:44:32;;;;;;;5.07;3.70;;;;;;;17.38;65.67;98779.88;5101979;27;102673;-71
2023/07/06 02:47:01;;;;;;;4.80;3.28;;;;;;;17.79;63.86;98778.47;5102113;27;102815;-71
2023/07/06 02:49:30;;;;;;;4.57;3.60;;;;;;;17.76;64.29;98776.09;5103655;27;103279;-72
2023/07/06 02:52:00;;;;;;;5.00;3.65;;;;;;;17.76;64.05;98775.25;5085209;27;104158;-71
2023/07/06 02:54:29;;;;;;;3.83;3.42;;;;;;;17.70;64.03;98773.19;5104812;27;102603;-71
2023/07/06 02:56:57;;;;;;;4.15;3.00;;;;;;;17.83;64.08;98784.31;5084825;27;102769;-71
2023/07/06 02:59:25;;;;;;;4.13;3.65;;;;;;;17.07;67.79;98783.03;5086394;27;104166;-71
2023/07/06 03:01:52;;;;;;;6.00;4.10;;;;;;;16.50;69.04;98779.63;5101941;27;103233;-72
2023/07/06 03:04:20;;;;;;;4.93;3.65;;;;;;;16.95;67.76;98778.91;5085410;27;102667;-71
2023/07/06 03:06:48;;;;;;;5.43;3.58;;;;;;;17.22;66.92;98778.88;5085223;27;103955;-70
2023/07/06 03:09:17;;;;;;;4.07;3.55;;;;;;;17.24;66.28;98772.38;5078792;27;102990;-71
2023/07/06 03:11:47;;;;;;;5.78;3.92;;;;;;;16.27;70.10;98780.13;5084236;27;103331;-71
2023/07/06 03:14:15;;;;;;;6.80;4.53;;;;;;;16.52;69.48;98772.31;5097984;27;103252;-71
2023/07/06 03:16:43;;;;;;;10.40;6.65;;;;;;;16.21;70.69;98770.88;5081604;27;103970;-70
2023/07/06 03:19:13;;;;;;;6.05;4.70;;;;;;;16.26;70.94;98776.59;5104100;27;103993;-71
2023/07/06 03:21:41;;;;;;;6.43;5.05;;;;;;;16.29;70.27;98773.66;5085211;27;103170;-72
2023/07/06 03:24:09;;;;;;;7.05;5.13;;;;;;;16.04;71.64;98774.28;5066596;27;103288;-71
2023/07/06 03:26:39;;;;;;;6.80;4.53;;;;;;;15.69;72.50;98777.53;5082649;27;103033;-71
2023/07/06 03:29:12;;;;;;;7.65;4.90;;;;;;;15.75;73.22;98766.31;5087182;27;104389;-70
2023/07/06 03:31:40;;;;;;;5.05;3.97;;;;;;;16.53;69.51;98782.00;5084530;27;103148;-70
2023/07/06 03:34:08;;;;;;;5.00;4.05;;;;;;;16.09;70.95;98783.53;5102869;27;102871;-70
2023/07/06 03:36:38;;;;;;;4.55;3.75;;;;;;;16.23;70.67;98784.88;5103134;27;103959;-70
2023/07/06 03:39:12;;;;;;;4.10;3.65;;;;;;;16.48;69.47;98773.59;5098134;27;103285;-71
2023/07/06 03:41:40;;;;;;;6.55;5.10;;;;;;;15.47;73.18;98786.66;5102719;27;103297;-72
2023/07/06 03:44:09;;;;;;;4.77;4.37;;;;;;;15.50;74.18;98789.03;5083318;27;102791;-72
2023/07/06 03:46:37;;;;;;;5.70;4.00;;;;;;;15.47;73.51;98777.81;5083789;27;103559;-71
2023/07/06 03:49:07;;;;;;;5.30;4.28;;;;;;;15.27;74.45;98776.09;5082511;27;103402;-69
2023/07/06 03:51:35;;;;;;;4.35;3.80;;;;;;;15.22;75.47;98781.81;5097361;27;103376;-68
2023/07/06 03:54:06;;;;;;;6.53;4.73;;;;;;;15.29;74.87;98782.97;5083517;27;103110;-69
2023/07/06 03:56:35;;;;;;;6.75;4.07;;;;;;;15.16;75.38;98792.19;5095625;27;103544;-70
2023/07/06 03:59:05;;;;;;;4.30;3.90;;;;;;;15.41;74.05;98781.84;5097556;27;103284;-70
2023/07/06 04:01:35;;;;;;;5.57;3.92;;;;;;;15.40;74.74;98785.50;5099277;27;103153;-69
2023/07/06 04:04:06;;;;;;;4.95;3.55;;;;;;;15.43;74.26;98773.72;5102460;27;103459;-70
2023/07/06 04:06:40;;;;;;;6.43;4.18;;;;;;;15.69;72.96;98779.38;5099161;27;103808;-70
2023/07/06 04:09:10;;;;;;;4.72;3.90;;;;;;;15.73;72.72;98788.75;5100158;27;103266;-69
2023/07/06 04:11:38;;;;;;;4.82;3.63;;;;;;;15.57;73.86;98786.66;5092609;27;103320;-69
2023/07/06 04:14:06;;;;;;;5.17;3.70;;;;;;;15.33;74.25;98789.69;5100027;27;102757;-69
2023/07/06 04:16:36;;;;;;;5.87;3.70;;;;;;;15.33;74.68;98784.38;5101230;27;103959;-69
2023/07/06 04:19:05;;;;;;;4.40;3.90;;;;;;;15.74;73.24;98788.63;5097349;27;103652;-69
2023/07/06 04:21:33;;;;;;;6.00;3.75;;;;;;;15.84;72.32;98793.94;5099418;27;103303;-78
2023/07/06 04:24:01;;;;;;;4.78;3.35;;;;;;;15.90;71.98;98796.03;5098448;27;102683;-78
2023/07/06 04:26:28;;;;;;;5.47;3.83;;;;;;;15.52;72.35;98797.72;5101744;27;102748;-78
2023/07/06 04:28:56;;;;;;;4.67;3.70;;;;;;;15.86;71.89;98799.97;5078977;27;104437;-78
2023/07/06 04:31:24;;;;;;;6.15;3.58;;;;;;;15.55;72.77;98796.63;5106378;27;103310;-77
2023/07/06 04:33:54;;;;;;;4.63;3.80;;;;;;;15.25;74.29;98800.19;5106505;27;102878;-78
2023/07/06 04:36:22;;;;;;;4.27;3.83;;;;;;;15.15;75.42;98791.34;5107900;27;103953;-78
2023/07/06 04:38:49;;;;;;;9.27;4.65;;;;;;;15.79;75.25;98796.19;5085070;27;104209;-81
2023/07/06 04:41:17;;;;;;;6.93;4.47;;;;;;;16.10;76.51;98789.69;5082836;27;104158;-78
2023/07/06 04:43:48;;;;;;;9.75;5.28;;;;;;;16.16;76.01;98791.78;5104512;27;102566;-78
2023/07/06 04:46:15;;;;;;;7.10;4.10;;;;;;;15.83;75.09;98800.25;5104372;27;103767;-79
2023/07/06 04:48:44;;;;;;;4.87;4.00;;;;;;;15.86;74.08;98807.97;5101185;27;103403;-80
2023/07/06 04:51:13;;;;;;;3.92;3.63;;;;;;;15.77;74.18;98803.47;5106414;27;103195;-80
2023/07/06 04:53:43;;;;;;;4.00;3.60;;;;;;;16.21;73.15;98802.88;5102462;27;102843;-80
2023/07/06 04:56:11;;;;;;;3.85;3.45;;;;;;;16.48;72.49;98804.75;5102108;27;102670;-79
2023/07/06 04:58:41;;;;;;;5.97;4.13;;;;;;;16.01;73.71;98817.19;5086163;27;104253;-79
2023/07/06 05:01:10;;;;;;;3.42;3.13;;;;;;;16.42;72.91;98806.16;5103705;27;103202;-78
2023/07/06 05:03:38;;;;;;;4.28;3.85;;;;;;;16.45;72.36;98805.88;5094364;27;102611;-78
2023/07/06 05:06:12;;;;;;;5.80;4.00;;;;;;;16.35;72.40;98814.91;5104650;27;102632;-76
2023/07/06 05:08:43;;;;;;;4.63;3.90;;;;;;;16.31;72.96;98813.53;5102828;27;104017;-77
2023/07/06 05:11:11;;;;;;;5.32;3.80;;;;;;;16.40;73.02;98818.81;5104720;27;102987;-77
2023/07/06 05:13:39;;;;;;;5.05;4.20;;;;;;;16.45;73.15;98821.06;5103709;27;103587;-77
2023/07/06 05:16:07;;;;;;;3.80;3.08;;;;;;;17.10;71.01;98817.44;5100935;27;102750;-75
2023/07/06 05:18:35;;;;;;;3.90;3.50;;;;;;;17.00;71.80;98827.31;5073961;27;104861;-76
2023/07/06 05:21:03;;;;;;;6.43;4.00;;;;;;;17.05;70.66;98822.38;5096553;27;103179;-75
2023/07/06 05:23:30;;;;;;;5.90;3.15;;;;;;;17.59;69.18;98825.03;5079502;27;102737;-76
2023/07/06 05:26:02;;;;;;;3.13;2.63;;;;;;;17.98;67.64;98822.03;5105956;27;104333;-75
2023/07/06 05:28:31;;;;;;;5.00;3.97;;;;;;;17.33;68.63;98821.38;5100473;27;104087;-77
2023/07/06 05:31:02;;;;;;;6.03;4.07;;;;;;;17.31;68.56;98823.34;5101679;27;103272;-78
2023/07/06 05:33:30;;;;;;;5.88;4.15;;;;;;;17.71;66.69;98823.78;5103309;27;102570;-79
2023/07/06 05:35:58;;;;;;;4.45;3.35;;;;;;;18.26;65.69;98823.59;5087336;27;102631;-81
2023/07/06 05:38:26;;;;;;;4.75;3.33;;;;;;;18.32;64.87;98817.63;5104136;27;103251;-77
2023/07/06 05:40:54;;;;;;;4.97;3.70;;;;;;;18.17;65.86;98830.72;5101825;27;103256;-79
2023/07/06 05:43:23;;;;;;;6.30;4.40;;;;;;;17.55;66.30;98836.16;5098347;27;102911;-72
2023/07/06 05:45:51;;;;;;;5.05;3.70;;;;;;;18.18;64.75;98828.88;5104550;27;102724;-71
2023/07/06 05:48:19;;;;;;;6.88;3.33;;;;;;;18.65;63.94;98838.28;5101863;27;103297;-71
2023/07/06 05:50:47;;;;;;;6.03;4.00;;;;;;;18.40;63.00;98837.25;5097399;27;103189;-71
2023/07/06 05:53:15;;;;;;;4.20;3.40;;;;;;;18.68;62.86;98845.97;5103208;27;102820;-71
2023/07/06 05:55:43;;;;;;;3.47;3.00;;;;;;;19.21;61.96;98842.22;5081622;27;103012;-71
2023/07/06 05:58:11;;;;;;;6.27;3.47;;;;;;;19.24;59.83;98832.03;5101213;27;103316;-71
2023/07/06 06:00:41;;;;;;;6.10;3.58;;;;;;;19.36;59.34;98838.78;5086106;27;104220;-71
2023/07/06 06:03:09;;;;;;;4.25;3.05;;;;;;;19.64;58.49;98850.09;5100272;27;102682;-71
2023/07/06 06:05:42;;;;;;;4.20;3.30;;;;;;;19.71;58.14;98845.72;5097363;27;104239;-71
2023/07/06 06:08:10;;;;;;;3.80;3.15;;;;;;;19.69;58.74;98850.44;5082182;27;103558;-71
2023/07/06 06:10:38;;;;;;;5.50;3.03;;;;;;;19.74;58.48;98853.44;5106317;27;102990;-71
2023/07/06 06:13:06;;;;;;;5.43;3.33;;;;;;;19.48;58.94;98844.69;5101805;27;102623;-71
2023/07/06 06:15:34;;;;;;;4.30;3.00;;;;;;;19.96;57.78;98849.28;5103828;27;103993;-71
2023/07/06 06:18:03;;;;;;;2.55;2.22;;;;;;;20.44;56.49;98848.47;5099850;27;103295;-71
2023/07/06 06:20:31;;;;;;;3.17;2.28;;;;;;;20.61;56.06;98855.50;5091759;27;103334;-71
2023/07/06 06:23:00;;;;;;;4.20;2.80;;;;;;;20.53;55.42;98847.47;5096627;27;102701;-71
2023/07/06 06:25:28;;;;;;;4.25;2.88;;;;;;;20.59;54.68;98852.16;5101254;27;102811;-79
2023/07/06 06:27:56;;;;;;;5.67;3.10;;;;;;;19.96;54.19;98855.50;5085116;27;104170;-79
2023/07/06 06:30:24;;;;;;;3.97;2.63;;;;;;;20.66;53.68;98858.53;5101895;27;103320;-79
2023/07/06 06:32:52;;;;;;;3.13;2.65;;;;;;;20.39;54.15;98858.88;5104912;27;102720;-79
2023/07/06 06:35:23;;;;;;;4.55;2.50;;;;;;;20.89;52.39;98846.03;5103879;27;104215;-74
2023/07/06 06:37:51;;;;;;;3.00;2.27;;;;;;;20.59;52.19;98853.00;5081040;27;104233;-74
2023/07/06 06:40:25;;;;;;;4.93;2.28;;;;;;;20.58;52.48;98855.84;5103441;27;103453;-74
2023/07/06 06:42:53;;;;;;;3.80;2.67;;;;;;;20.43;50.32;98852.19;5100241;27;102620;-74
2023/07/06 06:45:21;;;;;;;2.53;2.00;;;;;;;20.95;50.78;98847.19;5085892;27;103053;-74
2023/07/06 06:47:52;;;;;;;2.20;2.00;;;;;;;21.18;51.60;98843.63;5100655;27;104084;-74
2023/07/06 06:50:20;;;;;;;3.47;2.10;;;;;;;20.77;51.91;98844.75;5104478;27;103282;-75
2023/07/06 06:52:52;;;;;;;4.07;2.30;;;;;;;20.92;50.11;98848.38;5100244;27;103100;-74
2023/07/06 06:55:20;;;;;;;2.60;1.90;;;;;;;21.07;50.14;98857.44;5102970;27;102782;-74
2023/07/06 06:57:48;;;;;;;2.53;1.88;;;;;;;21.44;48.90;98851.41;5085662;27;103931;-72
2023/07/06 07:00:16;;;;;;;2.05;1.80;;;;;;;21.55;49.30;98844.78;5090786;27;103468;-71
2023/07/06 07:02:45;;;;;;;2.90;2.03;;;;;;;21.75;48.20;98846.00;5098421;27;102955;-71
2023/07/06 07:05:15;;;;;;;2.50;1.90;;;;;;;21.93;48.30;98838.50;5101164;27;103076;-71
2023/07/06 07:07:44;;;;;;;2.70;2.00;;;;;;;21.92;48.60;98839.53;5099070;27;104021;-70
2023/07/06 07:10:13;;;;;;;2.75;2.20;;;;;;;22.05;49.00;98837.09;5104462;27;103196;-71
2023/07/06 07:12:44;;;;;;;3.22;2.10;;;;;;;22.12;48.58;98843.41;5080651;27;102775;-71
2023/07/06 07:15:15;;;;;;;2.80;2.20;;;;;;;22.06;48.10;98837.94;5079269;27;103529;-70
2023/07/06 07:17:45;;;;;;;4.93;2.58;;;;;;;22.37;47.78;98844.06;5100763;27;104279;-71
2023/07/06 07:20:14;;;;;;;3.60;2.30;;;;;;;21.73;48.59;98845.34;5094972;27;103325;-71
2023/07/06 07:22:44;;;;;;;3.42;2.10;;;;;;;22.49;47.83;98846.09;5100561;27;102825;-71
2023/07/06 07:25:17;;;;;;;5.25;2.35;;;;;;;22.50;47.19;98845.09;5080338;27;102730;-70
2023/07/06 07:27:46;;;;;;;2.28;1.90;;;;;;;22.47;46.82;98837.38;5102453;27;103232;-71
2023/07/06 07:30:14;;;;;;;2.13;1.80;;;;;;;22.92;46.18;98838.31;5094323;27;103295;-71
2023/07/06 07:32:47;;;;;;;2.50;1.97;;;;;;;23.34;45.39;98838.47;5104077;27;102737;-71
2023/07/06 07:35:18;;;;;;;1.93;1.60;;;;;;;23.52;43.58;98844.28;5105167;27;104020;-70
2023/07/06 07:37:50;;;;;;;3.85;2.22;;;;;;;23.41;44.31;98836.69;5101247;27;103273;-72
2023/07/06 07:40:23;;;;;;;2.85;1.90;;;;;;;23.62;43.52;98842.16;5100540;27;103231;-71
2023/07/06 07:42:51;;;;;;;3.45;1.80;;;;;;;23.55;44.20;98832.31;5106074;27;102685;-70
2023/07/06 07:45:19;;;;;;;2.07;1.83;;;;;;;24.00;43.28;98831.16;5099978;27;103028;-71
2023/07/06 07:47:48;;;;;;;3.22;1.88;;;;;;;24.01;43.37;98838.19;5097203;27;103370;-71
2023/07/06 07:50:24;;;;;;;2.72;1.77;;;;;;;24.77;42.93;98823.91;5103360;27;103238;-73
2023/07/06 07:52:55;;;;;;;3.00;2.07;;;;;;;24.62;41.44;98832.09;5084404;27;103072;-71
2023/07/06 07:55:24;;;;;;;3.50;2.10;;;;;;;24.24;42.22;98833.47;5085618;27;103276;-69
2023/07/06 07:57:56;;;;;;;3.97;2.05;;;;;;;24.82;41.78;98832.28;5100265;27;103301;-71
2023/07/06 08:00:27;;;;;;;2.43;1.70;;;;;;;25.56;41.62;98830.59;5101029;27;103286;-70
2023/07/06 08:02:59;;;;;;;2.63;1.80;;;;;;;25.78;39.82;98834.00;5084849;27;103164;-71
2023/07/06 08:05:28;;;;;;;3.85;1.60;;;;;;;26.11;39.47;98831.34;5102823;27;102819;-70
2023/07/06 08:07:59;;;;;;;2.30;1.50;;;;;;;26.16;37.93;98831.59;5104683;27;103701;-72
2023/07/06 08:10:29;;;;;;;3.60;2.20;;;;;;;26.18;38.17;98824.09;5107516;27;103228;-71
2023/07/06 08:13:05;;;;;;;3.83;2.00;;;;;;;25.79;38.34;98824.84;5105489;27;102593;-71
2023/07/06 08:15:38;;;;;;;2.10;1.90;;;;;;;25.91;39.00;98824.03;5089063;27;103342;-73
2023/07/06 08:18:07;;;;;;;2.27;2.00;;;;;;;25.32;38.59;98820.25;5087682;27;104145;-71
2023/07/06 08:20:39;;;;;;;3.65;2.00;;;;;;;26.33;38.33;98816.63;5089730;27;103182;-72
2023/07/06 08:23:28;;;;;;;4.95;1.92;;;;;;;25.68;38.86;98823.56;5103352;27;102618;-72
2023/07/06 08:25:58;;;;;;;2.00;1.70;;;;;;;24.90;38.91;98828.59;5107074;27;104050;-72
2023/07/06 08:28:31;;;;;;;4.40;2.30;;;;;;;24.35;40.55;98832.09;5085286;27;102851;-72
2023/07/06 08:31:01;;;;;;;2.75;1.90;;;;;;;24.49;39.55;98832.00;5108665;27;103391;-72
2023/07/06 08:33:32;;;;;;;3.27;2.10;;;;;;;24.71;39.13;98828.22;5108597;27;102734;-72
2023/07/06 08:36:01;;;;;;;4.72;2.17;;;;;;;25.76;37.63;98827.97;5087056;27;102770;-72
2023/07/06 08:38:31;;;;;;;3.05;1.90;;;;;;;27.60;36.28;98818.66;5105248;27;103316;-73
2023/07/06 08:41:26;;;;;;;3.30;2.10;;;;;;;26.88;36.04;98818.88;5085842;27;104226;-71
2023/07/06 08:43:55;;;;;;;3.80;1.93;;;;;;;25.38;38.34;98830.28;5107643;27;103303;-72
2023/07/06 08:46:23;;;;;;;4.50;2.20;;;;;;;25.17;37.95;98827.69;5089035;27;102874;-71
2023/07/06 08:48:54;;;;;;;2.97;1.77;;;;;;;26.69;37.14;98822.44;5089451;27;104384;-71
2023/07/06 08:51:26;;;;;;;3.70;2.30;;;;;;;27.50;35.30;98810.16;5087821;27;104333;-70
2023/07/06 08:54:07;;;;;;;4.80;2.25;;;;;;;27.53;35.62;98808.88;5105162;27;102577;-71
2023/07/06 08:56:39;;;;;;;4.40;2.63;;;;;;;27.44;35.55;98816.44;5105822;27;103894;-74
2023/07/06 08:59:21;;;;;;;3.15;2.30;;;;;;;28.41;33.57;98813.31;5107895;27;103505;-77
2023/07/06 09:01:52;;;;;;;4.15;1.98;;;;;;;29.37;35.62;98804.63;5107106;27;103168;-75
2023/07/06 09:04:24;;;;;;;3.13;1.92;;;;;;;29.82;33.10;98801.31;5090305;27;104142;-76
2023/07/06 09:07:00;;;;;;;2.63;2.00;;;;;;;29.80;33.41;98802.63;5106179;27;103189;-76
2023/07/06 09:09:28;;;;;;;2.90;1.90;;;;;;;30.80;33.26;98800.78;5107259;27;102827;-76
2023/07/06 09:12:00;;;;;;;2.60;1.90;;;;;;;28.34;34.26;98801.69;5087415;27;104242;-74
2023/07/06 09:14:31;;;;;;;3.55;2.17;;;;;;;28.10;34.27;98800.59;5088918;27;102968;-76
2023/07/06 09:17:09;;;;;;;3.83;1.98;;;;;;;29.50;32.36;98790.88;5106023;27;102905;-73
2023/07/06 09:19:38;;;;;;;3.03;1.88;;;;;;;28.96;32.53;98792.53;5104425;27;103746;-75
2023/07/06 09:22:10;;;;;;;4.80;2.50;;;;;;;28.17;32.64;98801.41;5100405;27;103193;-73
2023/07/06 09:24:38;;;;;;;4.80;2.50;;;;;;;26.17;35.60;98800.75;5088960;27;102839;-75
2023/07/06 09:27:15;;;;;;;3.08;2.10;;;;;;;28.16;34.16;98788.88;5106996;27;105118;-76
2023/07/06 09:29:57;;;;;;;3.10;2.17;;;;;;;27.46;35.25;98794.50;5107388;27;103180;-75
2023/07/06 09:32:24;;;;;;;3.08;2.00;;;;;;;26.23;36.51;98800.78;5086734;27;103314;-74
2023/07/06 09:35:04;;;;;;;3.85;2.10;;;;;;;26.16;37.56;98807.25;5090883;27;102694;-75
2023/07/06 09:37:32;;;;;;;2.40;1.98;;;;;;;27.36;36.04;98794.94;5104779;27;103248;-76
2023/07/06 09:40:03;;;;;;;3.13;2.35;;;;;;;27.54;34.27;98791.53;5107033;27;104190;-76
2023/07/06 09:42:33;;;;;;;4.05;2.00;;;;;;;27.99;34.08;98797.72;5105464;27;103529;-76
2023/07/06 09:45:19;;;;;;;3.33;2.10;;;;;;;28.94;33.47;98802.78;5104750;27;102934;-74
2023/07/06 09:47:55;;;;;;;2.75;2.00;;;;;;;30.02;31.53;98792.84;5084921;27;102756;-76
2023/07/06 09:50:28;;;;;;;2.83;1.85;;;;;;;30.60;30.38;98786.72;5091284;27;103211;-75
2023/07/06 09:52:58;;;;;;;4.45;2.30;;;;;;;29.34;31.94;98786.88;5084191;27;103902;-77
2023/07/06 09:55:30;;;;;;;4.63;2.30;;;;;;;27.03;33.20;98795.06;5100868;27;103117;-75
2023/07/06 09:58:01;;;;;;;4.30;2.50;;;;;;;28.67;32.99;98795.97;5107122;27;103997;-74
2023/07/06 10:00:34;;;;;;;2.95;2.40;;;;;;;27.74;33.17;98794.97;5088826;27;104269;-77
2023/07/06 10:03:17;;;;;;;4.25;2.22;;;;;;;27.40;33.43;98789.91;5081520;27;104115;-74
2023/07/06 10:05:51;;;;;;;5.10;2.43;;;;;;;27.93;32.83;98796.72;5104673;27;102889;-70
2023/07/06 10:08:24;;;;;;;4.37;2.20;;;;;;;28.77;32.35;98794.41;5106716;27;104008;-75
2023/07/06 10:11:03;;;;;;;3.92;2.20;;;;;;;29.10;31.80;98796.78;5089807;27;104800;-72
2023/07/06 10:13:39;;;;;;;3.07;2.20;;;;;;;29.26;31.91;98801.63;5109098;27;103160;-71
2023/07/06 10:16:21;;;;;;;4.68;2.58;;;;;;;27.14;32.68;98804.44;5105912;27;102667;-72
2023/07/06 10:18:52;;;;;;;2.55;2.17;;;;;;;28.89;31.66;98794.47;5107730;27;103000;-73
2023/07/06 10:21:25;;;;;;;3.10;2.20;;;;;;;27.55;32.59;98799.47;5102212;27;103222;-72
2023/07/06 10:24:08;;;;;;;4.00;2.17;;;;;;;28.84;32.04;98799.78;5083982;27;103810;-72
2023/07/06 10:26:47;;;;;;;5.22;2.28;;;;;;;28.53;31.86;98808.00;5090077;27;102625;-74
2023/07/06 10:29:30;;;;;;;3.63;2.40;;;;;;;26.78;34.01;98804.91;5108735;27;102891;-73
2023/07/06 10:32:04;;;;;;;4.40;2.40;;;;;;;27.38;33.35;98800.13;5110252;27;104140;-73
2023/07/06 10:34:41;;;;;;;3.58;1.98;;;;;;;28.45;32.61;98794.69;5110741;27;102584;-73
2023/07/06 10:37:15;;;;;;;3.97;2.37;;;;;;;25.81;35.49;98806.53;5108936;27;102834;-71
2023/07/06 10:40:19;;;;;;;3.08;2.20;;;;;;;25.72;35.56;98805.03;5105387;27;102865;-72
2023/07/06 10:43:12;;;;;;;3.30;2.10;;;;;;;26.33;35.65;98801.19;5067073;27;104028;-68
2023/07/06 10:45:44;;;;;;;2.40;2.07;;;;;;;27.12;34.92;98805.69;5083062;27;103202;-67
2023/07/06 10:48:14;;;;;;;4.30;1.83;;;;;;;27.50;34.04;98801.16;5102557;27;103573;-71
2023/07/06 10:50:51;;;;;;;4.00;2.20;;;;;;;27.23;33.86;98802.31;5083897;27;103705;-71
2023/07/06 10:53:25;;;;;;;2.83;1.80;;;;;;;27.01;35.54;98804.44;5102843;27;103733;-69
2023/07/06 10:56:15;;;;;;;3.78;2.10;;;;;;;27.73;33.73;98804.19;5082784;27;103540;-71
2023/07/06 10:58:49;;;;;;;2.43;1.97;;;;;;;29.58;31.74;98796.00;5104250;27;102929;-73
2023/07/06 11:01:28;;;;;;;2.93;2.30;;;;;;;29.45;31.91;98807.03;5102560;27;103993;-72
2023/07/06 11:04:00;;;;;;;2.88;2.20;;;;;;;30.16;32.16;98794.31;5104294;27;103293;-73
2023/07/06 11:06:52;;;;;;;4.13;2.37;;;;;;;30.30;32.95;98792.19;5106799;27;103194;-73
2023/07/06 11:09:21;;;;;;;4.20;2.25;;;;;;;30.32;33.34;98784.59;5080084;27;102651;-72
2023/07/06 11:12:18;;;;;;;3.28;2.10;;;;;;;29.24;31.12;98795.59;5106036;27;102805;-72
2023/07/06 11:14:48;;;;;;;3.90;2.38;;;;;;;27.29;33.03;98796.84;5104885;27;103233;-72
2023/07/06 11:17:28;;;;;;;4.60;2.30;;;;;;;27.32;33.53;98801.84;5081657;27;104020;-72
2023/07/06 11:19:59;;;;;;;2.60;2.13;;;;;;;27.67;34.03;98796.91;5084471;27;102780;-72
2023/07/06 11:22:31;;;;;;;4.97;2.30;;;;;;;26.32;33.82;98796.81;5104629;27;103915;-75
2023/07/06 11:25:05;;;;;;;3.00;2.30;;;;;;;27.31;34.52;98793.94;5102798;27;103247;-75
2023/07/06 11:27:38;;;;;;;2.87;2.53;;;;;;;26.17;35.02;98801.59;5085732;27;103225;-76
2023/07/06 11:30:17;;;;;;;5.07;2.60;;;;;;;26.89;34.04;98796.13;5104663;27;102849;-76
2023/07/06 11:33:01;;;;;;;4.97;2.20;;;;;;;28.67;31.36;98787.81;5102674;27;103996;-76
2023/07/06 11:35:41;;;;;;;3.88;2.20;;;;;;;29.57;31.53;98780.72;5083905;27;103494;-71
2023/07/06 11:38:27;;;;;;;2.22;1.90;;;;;;;30.17;31.44;98787.81;5081729;27;103486;-71
2023/07/06 11:41:12;;;;;;;2.85;2.20;;;;;;;29.11;31.63;98789.44;5073497;27;102830;-72
2023/07/06 11:43:55;;;;;;;2.53;1.98;;;;;;;29.65;30.95;98783.94;5098881;27;102993;-73
2023/07/06 11:46:36;;;;;;;2.88;2.28;;;;;;;30.37;30.41;98782.88;5099800;27;103354;-71
2023/07/06 11:49:22;;;;;;;4.38;2.10;;;;;;;29.78;31.05;98793.81;5100214;27;103420;-72